sensor_id;sensor_type;location;lat;lon;timestamp;temperature;humidity
29353;DHT22;16344;50.364;8.944;2023-03-11T00:00:43;3.60;1.00
29353;DHT22;16344;50.364;8.944;2023-03-11T00:03:11;3.60;1.00
29353;DHT22;16344;50.364;8.944;2023-03-11T00:05:40;3.50;1.00
29353;DHT22;16344;50.364;8.944;2023-03-11T00:08:07;3.40;1.00
29353;DHT22;16344;50.364;8.944;2023-03-11T00:10:38;3.40;1.00
29353;DHT22;16344;50.364;8.944;2023-03-11T00:13:05;3.50;1.00
29353;DHT22;16344;50.364;8.944;2023-03-11T00:15:32;3.50;1.00
29353;DHT22;16344;50.364;8.944;2023-03-11T00:17:57;3.40;1.00
29353;DHT22;16344;50.364;8.944;2023-03-11T00:20:34;3.40;1.00
29353;DHT22;16344;50.364;8.944;2023-03-11T00:23:01;3.50;1.00
29353;DHT22;16344;50.364;8.944;2023-03-11T00:25:29;3.40;1.00
29353;DHT22;16344;50.364;8.944;2023-03-11T00:27:55;3.30;1.00
29353;DHT22;16344;50.364;8.944;2023-03-11T00:30:22;3.40;1.00
29353;DHT22;16344;50.364;8.944;2023-03-11T00:32:49;3.40;1.00
29353;DHT22;16344;50.364;8.944;2023-03-11T00:35:18;3.40;1.00
29353;DHT22;16344;50.364;8.944;2023-03-11T00:37:46;3.40;1.00
29353;DHT22;16344;50.364;8.944;2023-03-11T00:40:16;3.40;1.00
29353;DHT22;16344;50.364;8.944;2023-03-11T00:42:42;3.40;1.00
29353;DHT22;16344;50.364;8.944;2023-03-11T00:45:08;3.30;1.00
29353;DHT22;16344;50.364;8.944;2023-03-11T00:47:33;3.30;1.00
29353;DHT22;16344;50.364;8.944;2023-03-11T00:49:59;3.30;1.00
29353;DHT22;16344;50.364;8.944;2023-03-11T00:52:25;3.10;1.00
29353;DHT22;16344;50.364;8.944;2023-03-11T00:54:50;3.10;1.00
29353;DHT22;16344;50.364;8.944;2023-03-11T00:57:16;3.10;1.00
29353;DHT22;16344;50.364;8.944;2023-03-11T00:59:41;3.10;1.00
29353;DHT22;16344;50.364;8.944;2023-03-11T01:02:07;3.10;1.00
29353;DHT22;16344;50.364;8.944;2023-03-11T01:04:32;3.10;1.00
29353;DHT22;16344;50.364;8.944;2023-03-11T01:06:58;3.10;1.00
29353;DHT22;16344;50.364;8.944;2023-03-11T01:09:24;3.20;1.00
29353;DHT22;16344;50.364;8.944;2023-03-11T01:11:49;3.10;1.00
29353;DHT22;16344;50.364;8.944;2023-03-11T01:14:16;3.20;1.00
29353;DHT22;16344;50.364;8.944;2023-03-11T01:16:42;3.30;1.00
29353;DHT22;16344;50.364;8.944;2023-03-11T01:19:07;3.30;1.00
29353;DHT22;16344;50.364;8.944;2023-03-11T01:21:33;3.30;1.00
29353;DHT22;16344;50.364;8.944;2023-03-11T01:23:59;3.30;1.00
29353;DHT22;16344;50.364;8.944;2023-03-11T01:26:24;3.30;1.00
29353;DHT22;16344;50.364;8.944;2023-03-11T01:28:50;3.30;1.00
29353;DHT22;16344;50.364;8.944;2023-03-11T01:31:15;3.20;1.00
29353;DHT22;16344;50.364;8.944;2023-03-11T01:33:41;3.20;1.00
29353;DHT22;16344;50.364;8.944;2023-03-11T01:36:06;3.30;1.00
29353;DHT22;16344;50.364;8.944;2023-03-11T01:38:32;3.30;1.00
29353;DHT22;16344;50.364;8.944;2023-03-11T01:40:58;3.30;1.00
29353;DHT22;16344;50.364;8.944;2023-03-11T01:43:46;3.30;1.00
29353;DHT22;16344;50.364;8.944;2023-03-11T01:46:22;3.20;1.00
29353;DHT22;16344;50.364;8.944;2023-03-11T01:48:53;3.30;1.00
29353;DHT22;16344;50.364;8.944;2023-03-11T01:51:34;3.30;1.00
29353;DHT22;16344;50.364;8.944;2023-03-11T01:54:04;3.30;1.00
29353;DHT22;16344;50.364;8.944;2023-03-11T01:56:31;3.40;1.00
29353;DHT22;16344;50.364;8.944;2023-03-11T01:58:57;3.30;1.00
29353;DHT22;16344;50.364;8.944;2023-03-11T02:01:23;3.20;1.00
29353;DHT22;16344;50.364;8.944;2023-03-11T02:03:49;3.20;1.00
29353;DHT22;16344;50.364;8.944;2023-03-11T02:06:18;3.20;1.00
29353;DHT22;16344;50.364;8.944;2023-03-11T02:08:45;3.20;1.00
29353;DHT22;16344;50.364;8.944;2023-03-11T02:11:16;3.10;1.00
29353;DHT22;16344;50.364;8.944;2023-03-11T02:13:42;2.90;1.00
29353;DHT22;16344;50.364;8.944;2023-03-11T02:16:09;2.90;1.00
29353;DHT22;16344;50.364;8.944;2023-03-11T02:18:36;2.90;1.00
29353;DHT22;16344;50.364;8.944;2023-03-11T02:29:49;3.00;99.90
29353;DHT22;16344;50.364;8.944;2023-03-11T02:32:17;3.00;1.00
29353;DHT22;16344;50.364;8.944;2023-03-11T02:34:43;3.00;1.00
29353;DHT22;16344;50.364;8.944;2023-03-11T02:37:11;3.00;1.00
29353;DHT22;16344;50.364;8.944;2023-03-11T02:39:40;2.90;99.90
29353;DHT22;16344;50.364;8.944;2023-03-11T02:42:32;3.00;1.00
29353;DHT22;16344;50.364;8.944;2023-03-11T02:45:09;3.00;1.00
29353;DHT22;16344;50.364;8.944;2023-03-11T02:47:36;3.00;1.00
29353;DHT22;16344;50.364;8.944;2023-03-11T02:50:04;3.00;99.90
29353;DHT22;16344;50.364;8.944;2023-03-11T02:52:31;3.10;1.00
29353;DHT22;16344;50.364;8.944;2023-03-11T02:54:58;3.10;99.90
29353;DHT22;16344;50.364;8.944;2023-03-11T02:57:23;3.10;99.90
29353;DHT22;16344;50.364;8.944;2023-03-11T02:59:49;3.10;99.90
29353;DHT22;16344;50.364;8.944;2023-03-11T03:02:14;3.10;99.90
29353;DHT22;16344;50.364;8.944;2023-03-11T03:04:40;3.20;99.90
29353;DHT22;16344;50.364;8.944;2023-03-11T03:07:05;3.20;99.90
29353;DHT22;16344;50.364;8.944;2023-03-11T03:09:31;3.20;99.90
29353;DHT22;16344;50.364;8.944;2023-03-11T03:11:57;3.30;99.90
29353;DHT22;16344;50.364;8.944;2023-03-11T03:14:23;3.30;99.90
29353;DHT22;16344;50.364;8.944;2023-03-11T03:16:48;3.30;99.90
29353;DHT22;16344;50.364;8.944;2023-03-11T03:19:14;3.20;99.90
29353;DHT22;16344;50.364;8.944;2023-03-11T03:21:39;3.20;99.90
29353;DHT22;16344;50.364;8.944;2023-03-11T03:24:05;3.20;99.90
29353;DHT22;16344;50.364;8.944;2023-03-11T03:26:31;3.20;1.00
29353;DHT22;16344;50.364;8.944;2023-03-11T03:28:57;3.00;1.00
29353;DHT22;16344;50.364;8.944;2023-03-11T03:31:22;3.10;1.00
29353;DHT22;16344;50.364;8.944;2023-03-11T03:33:48;3.00;1.00
29353;DHT22;16344;50.364;8.944;2023-03-11T03:36:14;2.90;1.00
29353;DHT22;16344;50.364;8.944;2023-03-11T03:38:40;2.80;1.00
29353;DHT22;16344;50.364;8.944;2023-03-11T03:41:06;2.80;1.00
29353;DHT22;16344;50.364;8.944;2023-03-11T03:43:31;2.80;1.00
29353;DHT22;16344;50.364;8.944;2023-03-11T03:46:02;2.90;1.00
29353;DHT22;16344;50.364;8.944;2023-03-11T03:48:29;3.10;1.00
29353;DHT22;16344;50.364;8.944;2023-03-11T03:50:54;3.10;1.00
29353;DHT22;16344;50.364;8.944;2023-03-11T03:53:20;3.10;1.00
29353;DHT22;16344;50.364;8.944;2023-03-11T03:55:46;3.10;1.00
29353;DHT22;16344;50.364;8.944;2023-03-11T03:58:12;3.00;1.00
29353;DHT22;16344;50.364;8.944;2023-03-11T04:00:37;3.00;1.00
29353;DHT22;16344;50.364;8.944;2023-03-11T04:03:04;3.10;1.00
29353;DHT22;16344;50.364;8.944;2023-03-11T04:05:30;3.10;1.00
29353;DHT22;16344;50.364;8.944;2023-03-11T04:07:56;3.00;1.00
29353;DHT22;16344;50.364;8.944;2023-03-11T04:10:21;3.00;1.00
29353;DHT22;16344;50.364;8.944;2023-03-11T04:12:47;2.90;1.00
29353;DHT22;16344;50.364;8.944;2023-03-11T04:15:12;2.80;1.00
29353;DHT22;16344;50.364;8.944;2023-03-11T04:17:38;2.80;1.00
29353;DHT22;16344;50.364;8.944;2023-03-11T04:20:04;2.90;1.00
29353;DHT22;16344;50.364;8.944;2023-03-11T04:22:32;2.80;1.00
29353;DHT22;16344;50.364;8.944;2023-03-11T04:24:58;2.80;1.00
29353;DHT22;16344;50.364;8.944;2023-03-11T04:27:23;2.80;1.00
29353;DHT22;16344;50.364;8.944;2023-03-11T04:29:49;2.90;1.00
29353;DHT22;16344;50.364;8.944;2023-03-11T04:32:15;2.90;1.00
29353;DHT22;16344;50.364;8.944;2023-03-11T04:34:40;3.00;1.00
29353;DHT22;16344;50.364;8.944;2023-03-11T04:37:06;3.10;1.00
29353;DHT22;16344;50.364;8.944;2023-03-11T04:39:32;3.20;1.00
29353;DHT22;16344;50.364;8.944;2023-03-11T04:41:57;3.10;1.00
29353;DHT22;16344;50.364;8.944;2023-03-11T04:44:23;3.20;1.00
29353;DHT22;16344;50.364;8.944;2023-03-11T04:46:48;3.10;1.00
29353;DHT22;16344;50.364;8.944;2023-03-11T04:49:14;3.10;1.00
29353;DHT22;16344;50.364;8.944;2023-03-11T04:51:40;3.10;1.00
29353;DHT22;16344;50.364;8.944;2023-03-11T04:54:06;3.10;1.00
29353;DHT22;16344;50.364;8.944;2023-03-11T04:56:31;3.20;1.00
29353;DHT22;16344;50.364;8.944;2023-03-11T04:58:57;3.10;1.00
29353;DHT22;16344;50.364;8.944;2023-03-11T05:01:22;3.20;1.00
29353;DHT22;16344;50.364;8.944;2023-03-11T05:03:48;3.20;1.00
29353;DHT22;16344;50.364;8.944;2023-03-11T05:06:13;3.30;1.00
29353;DHT22;16344;50.364;8.944;2023-03-11T05:08:39;3.20;1.00
29353;DHT22;16344;50.364;8.944;2023-03-11T05:11:05;3.30;1.00
29353;DHT22;16344;50.364;8.944;2023-03-11T05:13:31;3.30;1.00
29353;DHT22;16344;50.364;8.944;2023-03-11T05:15:56;3.20;1.00
29353;DHT22;16344;50.364;8.944;2023-03-11T05:18:22;3.10;99.90
29353;DHT22;16344;50.364;8.944;2023-03-11T05:20:47;3.10;1.00
29353;DHT22;16344;50.364;8.944;2023-03-11T05:23:13;3.10;1.00
29353;DHT22;16344;50.364;8.944;2023-03-11T05:25:38;3.10;1.00
29353;DHT22;16344;50.364;8.944;2023-03-11T05:28:04;2.90;1.00
29353;DHT22;16344;50.364;8.944;2023-03-11T05:30:30;2.90;1.00
29353;DHT22;16344;50.364;8.944;2023-03-11T05:32:55;3.00;1.00
29353;DHT22;16344;50.364;8.944;2023-03-11T05:35:21;3.00;1.00
29353;DHT22;16344;50.364;8.944;2023-03-11T05:37:47;3.00;1.00
29353;DHT22;16344;50.364;8.944;2023-03-11T05:40:14;3.00;1.00
29353;DHT22;16344;50.364;8.944;2023-03-11T05:42:40;3.00;1.00
29353;DHT22;16344;50.364;8.944;2023-03-11T05:45:07;3.10;1.00
29353;DHT22;16344;50.364;8.944;2023-03-11T05:47:32;3.20;1.00
29353;DHT22;16344;50.364;8.944;2023-03-11T05:49:58;3.10;1.00
29353;DHT22;16344;50.364;8.944;2023-03-11T05:52:23;3.20;1.00
29353;DHT22;16344;50.364;8.944;2023-03-11T05:54:49;3.10;1.00
29353;DHT22;16344;50.364;8.944;2023-03-11T05:57:16;3.10;1.00
29353;DHT22;16344;50.364;8.944;2023-03-11T05:59:42;3.10;1.00
29353;DHT22;16344;50.364;8.944;2023-03-11T06:02:07;3.00;1.00
29353;DHT22;16344;50.364;8.944;2023-03-11T06:04:33;3.00;1.00
29353;DHT22;16344;50.364;8.944;2023-03-11T06:06:58;3.00;1.00
29353;DHT22;16344;50.364;8.944;2023-03-11T06:09:24;3.10;1.00
29353;DHT22;16344;50.364;8.944;2023-03-11T06:11:50;3.10;1.00
29353;DHT22;16344;50.364;8.944;2023-03-11T06:14:15;3.20;1.00
29353;DHT22;16344;50.364;8.944;2023-03-11T06:16:41;3.20;1.00
29353;DHT22;16344;50.364;8.944;2023-03-11T06:19:07;3.10;1.00
29353;DHT22;16344;50.364;8.944;2023-03-11T06:21:32;3.00;1.00
29353;DHT22;16344;50.364;8.944;2023-03-11T06:23:58;3.00;1.00
29353;DHT22;16344;50.364;8.944;2023-03-11T06:26:23;3.10;1.00
29353;DHT22;16344;50.364;8.944;2023-03-11T06:28:50;3.20;1.00
29353;DHT22;16344;50.364;8.944;2023-03-11T06:31:18;3.20;1.00
29353;DHT22;16344;50.364;8.944;2023-03-11T06:33:45;3.20;1.00
29353;DHT22;16344;50.364;8.944;2023-03-11T06:36:13;3.30;1.00
29353;DHT22;16344;50.364;8.944;2023-03-11T06:38:38;3.20;1.00
29353;DHT22;16344;50.364;8.944;2023-03-11T06:41:05;3.10;1.00
29353;DHT22;16344;50.364;8.944;2023-03-11T06:43:32;3.20;1.00
29353;DHT22;16344;50.364;8.944;2023-03-11T06:45:58;3.30;1.00
29353;DHT22;16344;50.364;8.944;2023-03-11T06:48:24;3.40;1.00
29353;DHT22;16344;50.364;8.944;2023-03-11T06:50:57;3.40;99.90
29353;DHT22;16344;50.364;8.944;2023-03-11T06:53:23;3.30;1.00
29353;DHT22;16344;50.364;8.944;2023-03-11T06:58:27;3.40;99.90
29353;DHT22;16344;50.364;8.944;2023-03-11T07:00:53;3.40;99.90
29353;DHT22;16344;50.364;8.944;2023-03-11T07:03:19;3.50;99.90
29353;DHT22;16344;50.364;8.944;2023-03-11T07:05:44;3.70;99.90
29353;DHT22;16344;50.364;8.944;2023-03-11T07:08:10;3.80;99.90
29353;DHT22;16344;50.364;8.944;2023-03-11T07:10:36;4.00;99.90
29353;DHT22;16344;50.364;8.944;2023-03-11T07:13:01;4.20;99.90
29353;DHT22;16344;50.364;8.944;2023-03-11T07:15:27;4.60;99.90
29353;DHT22;16344;50.364;8.944;2023-03-11T07:17:53;4.60;99.90
29353;DHT22;16344;50.364;8.944;2023-03-11T07:20:18;4.70;99.90
29353;DHT22;16344;50.364;8.944;2023-03-11T07:22:44;4.80;99.90
29353;DHT22;16344;50.364;8.944;2023-03-11T07:25:09;5.20;95.70
29353;DHT22;16344;50.364;8.944;2023-03-11T07:27:35;5.60;25.10
29353;DHT22;16344;50.364;8.944;2023-03-11T07:30:01;6.00;1.00
29353;DHT22;16344;50.364;8.944;2023-03-11T07:32:27;6.20;1.00
29353;DHT22;16344;50.364;8.944;2023-03-11T07:34:52;6.40;1.00
29353;DHT22;16344;50.364;8.944;2023-03-11T07:37:18;6.50;1.00
29353;DHT22;16344;50.364;8.944;2023-03-11T07:39:43;6.70;1.00
29353;DHT22;16344;50.364;8.944;2023-03-11T07:42:09;6.90;1.00
29353;DHT22;16344;50.364;8.944;2023-03-11T07:44:34;7.00;1.00
29353;DHT22;16344;50.364;8.944;2023-03-11T07:47:04;7.00;1.00
29353;DHT22;16344;50.364;8.944;2023-03-11T07:49:30;7.30;1.00
29353;DHT22;16344;50.364;8.944;2023-03-11T07:51:56;7.50;1.00
29353;DHT22;16344;50.364;8.944;2023-03-11T07:54:22;7.60;1.00
29353;DHT22;16344;50.364;8.944;2023-03-11T07:56:47;7.40;1.00
29353;DHT22;16344;50.364;8.944;2023-03-11T07:59:13;7.30;1.00
29353;DHT22;16344;50.364;8.944;2023-03-11T08:01:38;6.80;1.00
29353;DHT22;16344;50.364;8.944;2023-03-11T08:04:07;6.50;1.00
29353;DHT22;16344;50.364;8.944;2023-03-11T08:06:35;6.00;1.00
29353;DHT22;16344;50.364;8.944;2023-03-11T08:09:04;6.00;1.00
29353;DHT22;16344;50.364;8.944;2023-03-11T08:11:30;6.10;1.00
29353;DHT22;16344;50.364;8.944;2023-03-11T08:13:56;6.20;1.00
29353;DHT22;16344;50.364;8.944;2023-03-11T08:16:22;6.10;1.00
29353;DHT22;16344;50.364;8.944;2023-03-11T08:18:50;5.90;1.00
29353;DHT22;16344;50.364;8.944;2023-03-11T08:21:18;5.80;1.00
29353;DHT22;16344;50.364;8.944;2023-03-11T08:23:44;5.80;1.00
29353;DHT22;16344;50.364;8.944;2023-03-11T08:26:15;5.50;1.00
29353;DHT22;16344;50.364;8.944;2023-03-11T08:28:41;5.30;1.00
29353;DHT22;16344;50.364;8.944;2023-03-11T08:31:18;5.00;1.00
29353;DHT22;16344;50.364;8.944;2023-03-11T08:33:46;4.80;1.00
29353;DHT22;16344;50.364;8.944;2023-03-11T08:36:14;4.80;1.00
29353;DHT22;16344;50.364;8.944;2023-03-11T08:38:40;4.70;1.00
29353;DHT22;16344;50.364;8.944;2023-03-11T08:41:05;4.70;1.00
29353;DHT22;16344;50.364;8.944;2023-03-11T08:43:31;4.60;1.00
29353;DHT22;16344;50.364;8.944;2023-03-11T08:46:02;4.60;1.00
29353;DHT22;16344;50.364;8.944;2023-03-11T08:48:28;4.60;1.00
29353;DHT22;16344;50.364;8.944;2023-03-11T08:50:54;4.70;25.90
29353;DHT22;16344;50.364;8.944;2023-03-11T08:53:22;4.80;1.00
29353;DHT22;16344;50.364;8.944;2023-03-11T08:55:50;4.80;1.00
29353;DHT22;16344;50.364;8.944;2023-03-11T08:58:15;4.70;1.00
29353;DHT22;16344;50.364;8.944;2023-03-11T09:00:41;4.80;1.00
29353;DHT22;16344;50.364;8.944;2023-03-11T09:03:06;4.90;1.00
29353;DHT22;16344;50.364;8.944;2023-03-11T09:05:32;5.00;1.00
29353;DHT22;16344;50.364;8.944;2023-03-11T09:07:57;5.10;1.00
29353;DHT22;16344;50.364;8.944;2023-03-11T09:10:23;5.10;1.00
29353;DHT22;16344;50.364;8.944;2023-03-11T09:12:48;5.20;1.00
29353;DHT22;16344;50.364;8.944;2023-03-11T09:15:14;5.10;1.00
29353;DHT22;16344;50.364;8.944;2023-03-11T09:17:40;5.20;1.00
29353;DHT22;16344;50.364;8.944;2023-03-11T09:20:05;5.20;1.00
29353;DHT22;16344;50.364;8.944;2023-03-11T09:22:31;5.40;1.00
29353;DHT22;16344;50.364;8.944;2023-03-11T09:24:57;5.60;1.00
29353;DHT22;16344;50.364;8.944;2023-03-11T09:27:22;5.60;1.00
29353;DHT22;16344;50.364;8.944;2023-03-11T09:29:48;5.70;1.00
29353;DHT22;16344;50.364;8.944;2023-03-11T09:32:14;5.80;1.00
29353;DHT22;16344;50.364;8.944;2023-03-11T09:34:40;6.10;1.00
29353;DHT22;16344;50.364;8.944;2023-03-11T09:37:06;6.20;1.00
29353;DHT22;16344;50.364;8.944;2023-03-11T09:39:32;6.30;1.00
29353;DHT22;16344;50.364;8.944;2023-03-11T09:45:14;6.80;1.00
29353;DHT22;16344;50.364;8.944;2023-03-11T09:50:33;6.80;1.00
29353;DHT22;16344;50.364;8.944;2023-03-11T09:55:54;6.70;1.00
29353;DHT22;16344;50.364;8.944;2023-03-11T09:58:40;6.40;1.00
29353;DHT22;16344;50.364;8.944;2023-03-11T10:01:17;6.10;1.00
29353;DHT22;16344;50.364;8.944;2023-03-11T10:03:46;5.90;1.00
29353;DHT22;16344;50.364;8.944;2023-03-11T10:06:16;5.80;1.00
29353;DHT22;16344;50.364;8.944;2023-03-11T10:12:12;5.70;1.00
29353;DHT22;16344;50.364;8.944;2023-03-11T10:20:34;5.00;1.00
29353;DHT22;16344;50.364;8.944;2023-03-11T10:23:23;4.80;1.00
29353;DHT22;16344;50.364;8.944;2023-03-11T10:26:14;4.60;1.00
29353;DHT22;16344;50.364;8.944;2023-03-11T10:28:46;4.70;1.00
29353;DHT22;16344;50.364;8.944;2023-03-11T10:31:36;4.70;1.00
29353;DHT22;16344;50.364;8.944;2023-03-11T10:34:22;4.90;1.00
29353;DHT22;16344;50.364;8.944;2023-03-11T10:39:31;4.80;1.00
29353;DHT22;16344;50.364;8.944;2023-03-11T10:42:19;5.00;1.00
29353;DHT22;16344;50.364;8.944;2023-03-11T10:44:46;5.20;1.00
29353;DHT22;16344;50.364;8.944;2023-03-11T10:47:22;5.30;1.00
29353;DHT22;16344;50.364;8.944;2023-03-11T10:49:48;5.30;1.00
29353;DHT22;16344;50.364;8.944;2023-03-11T10:52:14;5.40;1.00
29353;DHT22;16344;50.364;8.944;2023-03-11T10:54:42;5.40;1.00
29353;DHT22;16344;50.364;8.944;2023-03-11T10:59:56;5.30;1.00
29353;DHT22;16344;50.364;8.944;2023-03-11T11:02:28;5.30;1.00
29353;DHT22;16344;50.364;8.944;2023-03-11T11:07:41;5.50;1.00
29353;DHT22;16344;50.364;8.944;2023-03-11T11:10:15;5.50;1.00
29353;DHT22;16344;50.364;8.944;2023-03-11T11:15:31;5.70;1.00
29353;DHT22;16344;50.364;8.944;2023-03-11T11:18:01;5.60;1.00
29353;DHT22;16344;50.364;8.944;2023-03-11T11:20:28;5.70;1.00
29353;DHT22;16344;50.364;8.944;2023-03-11T11:22:56;5.90;1.00
29353;DHT22;16344;50.364;8.944;2023-03-11T11:25:42;5.90;1.00
29353;DHT22;16344;50.364;8.944;2023-03-11T11:28:20;5.90;1.00
29353;DHT22;16344;50.364;8.944;2023-03-11T11:30:59;6.00;1.00
29353;DHT22;16344;50.364;8.944;2023-03-11T11:33:37;6.00;1.00
29353;DHT22;16344;50.364;8.944;2023-03-11T11:36:05;5.90;1.00
29353;DHT22;16344;50.364;8.944;2023-03-11T11:38:36;6.10;1.00
29353;DHT22;16344;50.364;8.944;2023-03-11T11:41:03;6.20;1.00
29353;DHT22;16344;50.364;8.944;2023-03-11T11:46:33;6.40;1.00
29353;DHT22;16344;50.364;8.944;2023-03-11T11:49:29;6.60;1.00
29353;DHT22;16344;50.364;8.944;2023-03-11T11:52:10;6.80;1.00
29353;DHT22;16344;50.364;8.944;2023-03-11T11:54:52;6.90;1.00
29353;DHT22;16344;50.364;8.944;2023-03-11T11:57:22;6.80;1.00
29353;DHT22;16344;50.364;8.944;2023-03-11T11:59:48;6.90;1.00
29353;DHT22;16344;50.364;8.944;2023-03-11T12:02:37;7.00;1.00
29353;DHT22;16344;50.364;8.944;2023-03-11T12:05:28;7.10;1.00
29353;DHT22;16344;50.364;8.944;2023-03-11T12:13:28;7.20;1.00
29353;DHT22;16344;50.364;8.944;2023-03-11T12:16:09;7.20;1.00
29353;DHT22;16344;50.364;8.944;2023-03-11T12:21:35;7.00;1.00
29353;DHT22;16344;50.364;8.944;2023-03-11T12:26:48;6.90;1.00
29353;DHT22;16344;50.364;8.944;2023-03-11T12:29:27;6.90;1.00
29353;DHT22;16344;50.364;8.944;2023-03-11T12:31:54;7.00;1.00
29353;DHT22;16344;50.364;8.944;2023-03-11T12:34:21;7.10;1.00
29353;DHT22;16344;50.364;8.944;2023-03-11T12:36:49;7.00;1.00
29353;DHT22;16344;50.364;8.944;2023-03-11T12:39:26;6.90;1.00
29353;DHT22;16344;50.364;8.944;2023-03-11T12:44:40;6.60;1.00
29353;DHT22;16344;50.364;8.944;2023-03-11T12:49:47;6.40;1.00
29353;DHT22;16344;50.364;8.944;2023-03-11T12:52:26;6.40;1.00
29353;DHT22;16344;50.364;8.944;2023-03-11T13:02:57;6.50;1.00
29353;DHT22;16344;50.364;8.944;2023-03-11T13:08:31;6.60;1.00
29353;DHT22;16344;50.364;8.944;2023-03-11T13:11:00;6.70;1.00
29353;DHT22;16344;50.364;8.944;2023-03-11T13:18:47;6.80;1.00
29353;DHT22;16344;50.364;8.944;2023-03-11T13:24:38;6.70;1.00
29353;DHT22;16344;50.364;8.944;2023-03-11T13:29:51;6.90;1.00
29353;DHT22;16344;50.364;8.944;2023-03-11T13:32:54;6.80;1.00
29353;DHT22;16344;50.364;8.944;2023-03-11T13:41:00;6.90;1.00
29353;DHT22;16344;50.364;8.944;2023-03-11T13:43:27;7.10;1.00
29353;DHT22;16344;50.364;8.944;2023-03-11T13:51:12;7.20;1.00
29353;DHT22;16344;50.364;8.944;2023-03-11T13:53:48;7.00;1.00
29353;DHT22;16344;50.364;8.944;2023-03-11T13:56:27;7.00;1.00
29353;DHT22;16344;50.364;8.944;2023-03-11T13:59:14;7.00;1.00
29353;DHT22;16344;50.364;8.944;2023-03-11T14:01:50;7.10;1.00
29353;DHT22;16344;50.364;8.944;2023-03-11T14:04:24;7.10;1.00
29353;DHT22;16344;50.364;8.944;2023-03-11T14:06:51;7.00;1.00
29353;DHT22;16344;50.364;8.944;2023-03-11T14:09:21;6.80;1.00
29353;DHT22;16344;50.364;8.944;2023-03-11T14:11:47;6.80;1.00
29353;DHT22;16344;50.364;8.944;2023-03-11T14:14:50;6.60;1.00
29353;DHT22;16344;50.364;8.944;2023-03-11T14:17:18;6.60;1.00
29353;DHT22;16344;50.364;8.944;2023-03-11T14:20:17;6.50;1.00
29353;DHT22;16344;50.364;8.944;2023-03-11T14:22:47;6.50;1.00
29353;DHT22;16344;50.364;8.944;2023-03-11T14:25:33;6.40;1.00
29353;DHT22;16344;50.364;8.944;2023-03-11T14:28:02;6.60;1.00
29353;DHT22;16344;50.364;8.944;2023-03-11T14:30:30;6.60;1.00
29353;DHT22;16344;50.364;8.944;2023-03-11T14:33:12;6.60;1.00
29353;DHT22;16344;50.364;8.944;2023-03-11T14:35:40;6.50;1.00
29353;DHT22;16344;50.364;8.944;2023-03-11T14:38:23;6.50;1.00
29353;DHT22;16344;50.364;8.944;2023-03-11T14:40:53;6.50;1.00
29353;DHT22;16344;50.364;8.944;2023-03-11T14:43:19;6.30;1.00
29353;DHT22;16344;50.364;8.944;2023-03-11T14:45:46;6.30;1.00
29353;DHT22;16344;50.364;8.944;2023-03-11T14:50:52;6.40;1.00
29353;DHT22;16344;50.364;8.944;2023-03-11T14:53:36;6.30;1.00
29353;DHT22;16344;50.364;8.944;2023-03-11T14:56:12;6.30;1.00
29353;DHT22;16344;50.364;8.944;2023-03-11T14:58:59;6.40;1.00
29353;DHT22;16344;50.364;8.944;2023-03-11T15:01:36;6.50;1.00
29353;DHT22;16344;50.364;8.944;2023-03-11T15:04:28;6.60;1.00
29353;DHT22;16344;50.364;8.944;2023-03-11T15:06:57;6.60;1.00
29353;DHT22;16344;50.364;8.944;2023-03-11T15:09:23;6.60;1.00
29353;DHT22;16344;50.364;8.944;2023-03-11T15:11:52;6.60;1.00
29353;DHT22;16344;50.364;8.944;2023-03-11T15:14:36;6.60;1.00
29353;DHT22;16344;50.364;8.944;2023-03-11T15:19:49;6.70;1.00
29353;DHT22;16344;50.364;8.944;2023-03-11T15:24:51;6.50;1.00
29353;DHT22;16344;50.364;8.944;2023-03-11T15:27:32;6.50;1.00
29353;DHT22;16344;50.364;8.944;2023-03-11T15:29:59;6.60;1.00
29353;DHT22;16344;50.364;8.944;2023-03-11T15:32:37;6.40;1.00
29353;DHT22;16344;50.364;8.944;2023-03-11T15:37:38;6.20;1.00
29353;DHT22;16344;50.364;8.944;2023-03-11T15:40:25;6.30;1.00
29353;DHT22;16344;50.364;8.944;2023-03-11T15:43:17;6.30;1.00
29353;DHT22;16344;50.364;8.944;2023-03-11T15:45:44;6.20;1.00
29353;DHT22;16344;50.364;8.944;2023-03-11T15:48:11;6.20;1.00
29353;DHT22;16344;50.364;8.944;2023-03-11T15:50:46;6.20;1.00
29353;DHT22;16344;50.364;8.944;2023-03-11T15:53:11;6.30;1.00
29353;DHT22;16344;50.364;8.944;2023-03-11T15:55:37;6.30;1.00
29353;DHT22;16344;50.364;8.944;2023-03-11T15:58:06;6.20;1.00
29353;DHT22;16344;50.364;8.944;2023-03-11T16:00:33;6.20;1.00
29353;DHT22;16344;50.364;8.944;2023-03-11T16:02:59;6.20;1.00
29353;DHT22;16344;50.364;8.944;2023-03-11T16:05:26;6.30;1.00
29353;DHT22;16344;50.364;8.944;2023-03-11T16:07:52;6.30;1.00
29353;DHT22;16344;50.364;8.944;2023-03-11T16:10:20;6.30;1.00
29353;DHT22;16344;50.364;8.944;2023-03-11T16:12:46;6.30;1.00
29353;DHT22;16344;50.364;8.944;2023-03-11T16:15:23;6.30;1.00
29353;DHT22;16344;50.364;8.944;2023-03-11T16:17:56;6.40;1.00
29353;DHT22;16344;50.364;8.944;2023-03-11T16:20:23;6.30;1.00
29353;DHT22;16344;50.364;8.944;2023-03-11T16:22:54;6.30;1.00
29353;DHT22;16344;50.364;8.944;2023-03-11T16:27:49;6.30;1.00
29353;DHT22;16344;50.364;8.944;2023-03-11T16:30:16;6.30;1.00
29353;DHT22;16344;50.364;8.944;2023-03-11T16:32:42;6.40;1.00
29353;DHT22;16344;50.364;8.944;2023-03-11T16:35:08;6.40;1.00
29353;DHT22;16344;50.364;8.944;2023-03-11T16:37:34;6.20;1.00
29353;DHT22;16344;50.364;8.944;2023-03-11T16:39:59;6.20;1.00
29353;DHT22;16344;50.364;8.944;2023-03-11T16:42:25;6.10;1.00
29353;DHT22;16344;50.364;8.944;2023-03-11T16:44:51;5.90;1.00
29353;DHT22;16344;50.364;8.944;2023-03-11T16:47:17;5.80;1.00
29353;DHT22;16344;50.364;8.944;2023-03-11T16:49:42;5.80;1.00
29353;DHT22;16344;50.364;8.944;2023-03-11T16:52:08;5.80;1.00
29353;DHT22;16344;50.364;8.944;2023-03-11T16:54:33;5.90;1.00
29353;DHT22;16344;50.364;8.944;2023-03-11T16:56:59;5.90;1.00
29353;DHT22;16344;50.364;8.944;2023-03-11T16:59:25;5.90;1.00
29353;DHT22;16344;50.364;8.944;2023-03-11T17:01:50;5.80;1.00
29353;DHT22;16344;50.364;8.944;2023-03-11T17:04:16;5.90;1.00
29353;DHT22;16344;50.364;8.944;2023-03-11T17:06:41;5.80;1.00
29353;DHT22;16344;50.364;8.944;2023-03-11T17:09:07;5.80;1.00
29353;DHT22;16344;50.364;8.944;2023-03-11T17:11:33;5.80;1.00
29353;DHT22;16344;50.364;8.944;2023-03-11T17:13:59;5.70;1.00
29353;DHT22;16344;50.364;8.944;2023-03-11T17:16:24;5.70;1.00
29353;DHT22;16344;50.364;8.944;2023-03-11T17:18:50;5.60;1.00
29353;DHT22;16344;50.364;8.944;2023-03-11T17:21:16;5.60;1.00
29353;DHT22;16344;50.364;8.944;2023-03-11T17:23:42;5.60;1.00
29353;DHT22;16344;50.364;8.944;2023-03-11T17:26:13;5.50;1.00
29353;DHT22;16344;50.364;8.944;2023-03-11T17:28:39;5.50;1.00
29353;DHT22;16344;50.364;8.944;2023-03-11T17:31:10;5.50;1.00
29353;DHT22;16344;50.364;8.944;2023-03-11T17:33:36;5.40;1.00
29353;DHT22;16344;50.364;8.944;2023-03-11T17:36:03;5.40;1.00
29353;DHT22;16344;50.364;8.944;2023-03-11T17:38:29;5.20;1.00
29353;DHT22;16344;50.364;8.944;2023-03-11T17:40:55;5.20;1.00
29353;DHT22;16344;50.364;8.944;2023-03-11T17:43:21;5.10;1.00
29353;DHT22;16344;50.364;8.944;2023-03-11T17:45:47;5.10;1.00
29353;DHT22;16344;50.364;8.944;2023-03-11T17:48:12;5.10;1.00
29353;DHT22;16344;50.364;8.944;2023-03-11T17:50:38;5.10;1.00
29353;DHT22;16344;50.364;8.944;2023-03-11T17:53:04;5.00;1.00
29353;DHT22;16344;50.364;8.944;2023-03-11T17:55:34;4.90;1.00